sensor_id;sensor_type;location;lat;lon;timestamp;temperature;humidity
5174;DHT22;2606;50.934;6.934;2022-07-17T00:01:56;18.20;75.30
5174;DHT22;2606;50.934;6.934;2022-07-17T00:04:22;18.20;75.70
5174;DHT22;2606;50.934;6.934;2022-07-17T00:06:48;18.10;75.90
5174;DHT22;2606;50.934;6.934;2022-07-17T00:09:13;18.10;76.50
5174;DHT22;2606;50.934;6.934;2022-07-17T00:11:39;18.10;77.40
5174;DHT22;2606;50.934;6.934;2022-07-17T00:14:05;18.10;77.70
5174;DHT22;2606;50.934;6.934;2022-07-17T00:16:31;18.10;78.70
5174;DHT22;2606;50.934;6.934;2022-07-17T00:18:56;18.00;79.50
5174;DHT22;2606;50.934;6.934;2022-07-17T00:21:22;18.00;80.20
5174;DHT22;2606;50.934;6.934;2022-07-17T00:23:47;18.00;81.70
5174;DHT22;2606;50.934;6.934;2022-07-17T00:26:13;17.90;82.70
5174;DHT22;2606;50.934;6.934;2022-07-17T00:28:38;17.90;83.60
5174;DHT22;2606;50.934;6.934;2022-07-17T00:31:04;17.90;84.10
5174;DHT22;2606;50.934;6.934;2022-07-17T00:33:30;17.90;84.50
5174;DHT22;2606;50.934;6.934;2022-07-17T00:35:56;17.90;84.90
5174;DHT22;2606;50.934;6.934;2022-07-17T00:38:22;17.80;84.90
5174;DHT22;2606;50.934;6.934;2022-07-17T00:40:47;17.80;85.40
5174;DHT22;2606;50.934;6.934;2022-07-17T00:43:13;17.80;85.80
5174;DHT22;2606;50.934;6.934;2022-07-17T00:45:38;17.80;86.50
5174;DHT22;2606;50.934;6.934;2022-07-17T00:48:06;17.70;87.40
5174;DHT22;2606;50.934;6.934;2022-07-17T00:50:40;17.70;88.40
5174;DHT22;2606;50.934;6.934;2022-07-17T00:53:07;17.70;89.80
5174;DHT22;2606;50.934;6.934;2022-07-17T00:55:32;17.70;90.20
5174;DHT22;2606;50.934;6.934;2022-07-17T00:58:03;17.70;90.50
5174;DHT22;2606;50.934;6.934;2022-07-17T01:00:29;17.70;90.80
5174;DHT22;2606;50.934;6.934;2022-07-17T01:02:55;17.60;91.00
5174;DHT22;2606;50.934;6.934;2022-07-17T01:05:22;17.50;91.10
5174;DHT22;2606;50.934;6.934;2022-07-17T01:07:48;17.50;91.50
5174;DHT22;2606;50.934;6.934;2022-07-17T01:10:15;17.50;91.80
5174;DHT22;2606;50.934;6.934;2022-07-17T01:12:42;17.50;91.90
5174;DHT22;2606;50.934;6.934;2022-07-17T01:15:08;17.40;92.20
5174;DHT22;2606;50.934;6.934;2022-07-17T01:17:35;17.40;92.50
5174;DHT22;2606;50.934;6.934;2022-07-17T01:20:03;17.30;92.80
5174;DHT22;2606;50.934;6.934;2022-07-17T01:22:28;17.30;93.00
5174;DHT22;2606;50.934;6.934;2022-07-17T01:24:54;17.30;93.30
5174;DHT22;2606;50.934;6.934;2022-07-17T01:27:20;17.20;93.40
5174;DHT22;2606;50.934;6.934;2022-07-17T01:29:46;17.20;93.60
5174;DHT22;2606;50.934;6.934;2022-07-17T01:32:12;17.20;93.80
5174;DHT22;2606;50.934;6.934;2022-07-17T01:34:37;17.10;94.00
5174;DHT22;2606;50.934;6.934;2022-07-17T01:37:03;17.00;94.20
5174;DHT22;2606;50.934;6.934;2022-07-17T01:39:29;17.00;94.50
5174;DHT22;2606;50.934;6.934;2022-07-17T01:42:13;16.90;94.70
5174;DHT22;2606;50.934;6.934;2022-07-17T01:44:39;16.90;94.80
5174;DHT22;2606;50.934;6.934;2022-07-17T01:47:04;16.90;94.80
5174;DHT22;2606;50.934;6.934;2022-07-17T01:49:30;16.80;94.90
5174;DHT22;2606;50.934;6.934;2022-07-17T01:51:56;16.80;95.10
5174;DHT22;2606;50.934;6.934;2022-07-17T01:54:26;16.70;95.30
5174;DHT22;2606;50.934;6.934;2022-07-17T01:56:51;16.70;95.40
5174;DHT22;2606;50.934;6.934;2022-07-17T01:59:17;16.70;95.60
5174;DHT22;2606;50.934;6.934;2022-07-17T02:01:42;16.60;95.60
5174;DHT22;2606;50.934;6.934;2022-07-17T02:04:08;16.60;95.90
5174;DHT22;2606;50.934;6.934;2022-07-17T02:06:33;16.60;96.10
5174;DHT22;2606;50.934;6.934;2022-07-17T02:08:59;16.50;96.40
5174;DHT22;2606;50.934;6.934;2022-07-17T02:11:25;16.50;96.50
5174;DHT22;2606;50.934;6.934;2022-07-17T02:13:50;16.50;96.70
5174;DHT22;2606;50.934;6.934;2022-07-17T02:16:16;16.50;96.90
5174;DHT22;2606;50.934;6.934;2022-07-17T02:18:41;16.50;97.00
5174;DHT22;2606;50.934;6.934;2022-07-17T02:21:07;16.40;97.10
5174;DHT22;2606;50.934;6.934;2022-07-17T02:23:32;16.40;97.10
5174;DHT22;2606;50.934;6.934;2022-07-17T02:25:58;16.40;97.40
5174;DHT22;2606;50.934;6.934;2022-07-17T02:28:24;16.40;97.40
5174;DHT22;2606;50.934;6.934;2022-07-17T02:30:49;16.40;97.30
5174;DHT22;2606;50.934;6.934;2022-07-17T02:33:15;16.40;97.40
5174;DHT22;2606;50.934;6.934;2022-07-17T02:35:40;16.30;97.60
5174;DHT22;2606;50.934;6.934;2022-07-17T02:38:06;16.30;97.60
5174;DHT22;2606;50.934;6.934;2022-07-17T02:40:32;16.30;97.70
5174;DHT22;2606;50.934;6.934;2022-07-17T02:42:58;16.30;97.60
5174;DHT22;2606;50.934;6.934;2022-07-17T02:45:24;16.30;97.70
5174;DHT22;2606;50.934;6.934;2022-07-17T02:47:53;16.20;97.80
5174;DHT22;2606;50.934;6.934;2022-07-17T02:50:21;16.20;97.90
5174;DHT22;2606;50.934;6.934;2022-07-17T02:52:47;16.20;98.00
5174;DHT22;2606;50.934;6.934;2022-07-17T02:55:14;16.20;98.20
5174;DHT22;2606;50.934;6.934;2022-07-17T02:57:40;16.20;98.40
5174;DHT22;2606;50.934;6.934;2022-07-17T03:00:08;16.20;98.50
5174;DHT22;2606;50.934;6.934;2022-07-17T03:02:34;16.10;98.50
5174;DHT22;2606;50.934;6.934;2022-07-17T03:05:00;16.10;98.60
5174;DHT22;2606;50.934;6.934;2022-07-17T03:07:26;16.10;98.60
5174;DHT22;2606;50.934;6.934;2022-07-17T03:09:51;16.10;98.80
5174;DHT22;2606;50.934;6.934;2022-07-17T03:12:17;16.10;98.90
5174;DHT22;2606;50.934;6.934;2022-07-17T03:14:42;16.10;99.10
5174;DHT22;2606;50.934;6.934;2022-07-17T03:17:08;16.00;99.10
5174;DHT22;2606;50.934;6.934;2022-07-17T03:19:34;16.00;99.60
5174;DHT22;2606;50.934;6.934;2022-07-17T03:21:59;16.00;99.50
5174;DHT22;2606;50.934;6.934;2022-07-17T03:24:25;15.90;99.50
5174;DHT22;2606;50.934;6.934;2022-07-17T03:26:50;15.90;99.50
5174;DHT22;2606;50.934;6.934;2022-07-17T03:29:16;15.90;99.60
5174;DHT22;2606;50.934;6.934;2022-07-17T03:31:43;15.80;99.70
5174;DHT22;2606;50.934;6.934;2022-07-17T03:34:09;15.80;99.70
5174;DHT22;2606;50.934;6.934;2022-07-17T03:36:34;15.80;99.70
5174;DHT22;2606;50.934;6.934;2022-07-17T03:39:00;15.80;99.80
5174;DHT22;2606;50.934;6.934;2022-07-17T03:41:26;15.80;99.90
5174;DHT22;2606;50.934;6.934;2022-07-17T03:43:51;15.80;99.90
5174;DHT22;2606;50.934;6.934;2022-07-17T03:46:17;15.80;99.90
5174;DHT22;2606;50.934;6.934;2022-07-17T03:48:43;15.80;99.90
5174;DHT22;2606;50.934;6.934;2022-07-17T03:51:08;15.80;99.90
5174;DHT22;2606;50.934;6.934;2022-07-17T03:53:34;15.90;99.90
5174;DHT22;2606;50.934;6.934;2022-07-17T03:56:00;15.90;99.90
5174;DHT22;2606;50.934;6.934;2022-07-17T03:58:25;15.90;99.90
5174;DHT22;2606;50.934;6.934;2022-07-17T04:00:51;15.90;99.80
5174;DHT22;2606;50.934;6.934;2022-07-17T04:03:17;15.90;99.90
5174;DHT22;2606;50.934;6.934;2022-07-17T04:05:43;15.80;99.90
5174;DHT22;2606;50.934;6.934;2022-07-17T04:08:08;15.80;99.90
5174;DHT22;2606;50.934;6.934;2022-07-17T04:10:34;15.70;99.90
5174;DHT22;2606;50.934;6.934;2022-07-17T04:13:01;15.70;99.90
5174;DHT22;2606;50.934;6.934;2022-07-17T04:15:26;15.80;99.90
5174;DHT22;2606;50.934;6.934;2022-07-17T04:18:10;15.80;99.90
5174;DHT22;2606;50.934;6.934;2022-07-17T04:20:36;15.80;99.90
5174;DHT22;2606;50.934;6.934;2022-07-17T04:23:01;15.80;99.90
5174;DHT22;2606;50.934;6.934;2022-07-17T04:25:27;15.80;99.90
5174;DHT22;2606;50.934;6.934;2022-07-17T04:27:53;15.80;99.90
5174;DHT22;2606;50.934;6.934;2022-07-17T04:30:18;15.70;99.90
5174;DHT22;2606;50.934;6.934;2022-07-17T04:32:44;15.70;99.90
5174;DHT22;2606;50.934;6.934;2022-07-17T04:35:09;15.60;99.90
5174;DHT22;2606;50.934;6.934;2022-07-17T04:37:35;15.60;99.90
5174;DHT22;2606;50.934;6.934;2022-07-17T04:40:00;15.60;99.90
5174;DHT22;2606;50.934;6.934;2022-07-17T04:42:26;15.60;99.90
5174;DHT22;2606;50.934;6.934;2022-07-17T04:44:51;15.60;99.90
5174;DHT22;2606;50.934;6.934;2022-07-17T04:47:17;15.60;99.90
5174;DHT22;2606;50.934;6.934;2022-07-17T04:49:42;15.60;99.90
5174;DHT22;2606;50.934;6.934;2022-07-17T04:52:08;15.60;99.90
5174;DHT22;2606;50.934;6.934;2022-07-17T04:54:34;15.60;99.90
5174;DHT22;2606;50.934;6.934;2022-07-17T04:56:59;15.60;99.90
5174;DHT22;2606;50.934;6.934;2022-07-17T04:59:25;15.60;99.90
5174;DHT22;2606;50.934;6.934;2022-07-17T05:01:50;15.60;99.90
5174;DHT22;2606;50.934;6.934;2022-07-17T05:04:16;15.60;99.90
5174;DHT22;2606;50.934;6.934;2022-07-17T05:06:41;15.60;99.90
5174;DHT22;2606;50.934;6.934;2022-07-17T05:09:07;15.70;99.90
5174;DHT22;2606;50.934;6.934;2022-07-17T05:11:32;15.70;99.90
5174;DHT22;2606;50.934;6.934;2022-07-17T05:13:58;15.70;99.90
5174;DHT22;2606;50.934;6.934;2022-07-17T05:16:23;15.70;99.90
5174;DHT22;2606;50.934;6.934;2022-07-17T05:18:49;15.70;99.90
5174;DHT22;2606;50.934;6.934;2022-07-17T05:21:14;15.80;99.90
5174;DHT22;2606;50.934;6.934;2022-07-17T05:23:40;15.80;99.90
5174;DHT22;2606;50.934;6.934;2022-07-17T05:26:06;15.90;99.90
5174;DHT22;2606;50.934;6.934;2022-07-17T05:28:31;15.90;99.90
5174;DHT22;2606;50.934;6.934;2022-07-17T05:30:57;15.90;99.90
5174;DHT22;2606;50.934;6.934;2022-07-17T05:33:23;16.00;99.90
5174;DHT22;2606;50.934;6.934;2022-07-17T05:35:48;16.10;99.90
5174;DHT22;2606;50.934;6.934;2022-07-17T05:38:14;16.10;99.90
5174;DHT22;2606;50.934;6.934;2022-07-17T05:40:39;16.20;99.70
5174;DHT22;2606;50.934;6.934;2022-07-17T05:43:06;16.30;99.80
5174;DHT22;2606;50.934;6.934;2022-07-17T05:45:32;16.40;99.70
5174;DHT22;2606;50.934;6.934;2022-07-17T05:47:57;16.40;99.80
5174;DHT22;2606;50.934;6.934;2022-07-17T05:50:23;16.40;99.80
5174;DHT22;2606;50.934;6.934;2022-07-17T05:52:48;16.50;99.80
5174;DHT22;2606;50.934;6.934;2022-07-17T05:55:14;16.60;99.80
5174;DHT22;2606;50.934;6.934;2022-07-17T05:57:40;16.70;99.70
5174;DHT22;2606;50.934;6.934;2022-07-17T06:00:06;16.80;99.40
5174;DHT22;2606;50.934;6.934;2022-07-17T06:02:32;16.80;99.10
5174;DHT22;2606;50.934;6.934;2022-07-17T06:04:57;16.80;99.10
5174;DHT22;2606;50.934;6.934;2022-07-17T06:07:23;16.90;98.80
5174;DHT22;2606;50.934;6.934;2022-07-17T06:09:48;16.90;99.00
5174;DHT22;2606;50.934;6.934;2022-07-17T06:12:14;16.90;99.10
5174;DHT22;2606;50.934;6.934;2022-07-17T06:14:39;16.90;98.70
5174;DHT22;2606;50.934;6.934;2022-07-17T06:17:05;17.00;98.60
5174;DHT22;2606;50.934;6.934;2022-07-17T06:19:31;17.00;98.50
5174;DHT22;2606;50.934;6.934;2022-07-17T06:21:56;17.10;98.50
5174;DHT22;2606;50.934;6.934;2022-07-17T06:24:22;17.20;98.40
5174;DHT22;2606;50.934;6.934;2022-07-17T06:26:47;17.30;98.20
5174;DHT22;2606;50.934;6.934;2022-07-17T06:29:13;17.40;98.00
5174;DHT22;2606;50.934;6.934;2022-07-17T06:31:38;17.50;97.80
5174;DHT22;2606;50.934;6.934;2022-07-17T06:34:04;17.50;97.70
5174;DHT22;2606;50.934;6.934;2022-07-17T06:36:30;17.60;97.30
5174;DHT22;2606;50.934;6.934;2022-07-17T06:38:55;17.70;97.20
5174;DHT22;2606;50.934;6.934;2022-07-17T06:41:21;17.80;97.00
5174;DHT22;2606;50.934;6.934;2022-07-17T06:43:46;17.90;96.80
5174;DHT22;2606;50.934;6.934;2022-07-17T06:46:12;18.00;96.60
5174;DHT22;2606;50.934;6.934;2022-07-17T06:48:38;17.90;96.10
5174;DHT22;2606;50.934;6.934;2022-07-17T06:51:03;18.00;96.30
5174;DHT22;2606;50.934;6.934;2022-07-17T06:53:29;18.10;96.30
5174;DHT22;2606;50.934;6.934;2022-07-17T06:55:54;18.20;95.70
5174;DHT22;2606;50.934;6.934;2022-07-17T06:58:20;18.30;95.40
5174;DHT22;2606;50.934;6.934;2022-07-17T07:00:45;18.40;94.90
5174;DHT22;2606;50.934;6.934;2022-07-17T07:03:11;18.50;94.30
5174;DHT22;2606;50.934;6.934;2022-07-17T07:05:36;18.40;94.40
5174;DHT22;2606;50.934;6.934;2022-07-17T07:08:02;18.50;94.50
5174;DHT22;2606;50.934;6.934;2022-07-17T07:10:28;18.50;94.40
5174;DHT22;2606;50.934;6.934;2022-07-17T07:12:53;18.60;94.30
5174;DHT22;2606;50.934;6.934;2022-07-17T07:15:19;18.70;93.80
5174;DHT22;2606;50.934;6.934;2022-07-17T07:17:45;18.80;93.50
5174;DHT22;2606;50.934;6.934;2022-07-17T07:20:11;18.90;93.50
5174;DHT22;2606;50.934;6.934;2022-07-17T07:22:36;18.90;93.50
5174;DHT22;2606;50.934;6.934;2022-07-17T07:25:03;19.00;93.40
5174;DHT22;2606;50.934;6.934;2022-07-17T07:27:29;19.10;92.80
5174;DHT22;2606;50.934;6.934;2022-07-17T07:29:55;19.10;92.60
5174;DHT22;2606;50.934;6.934;2022-07-17T07:32:20;19.20;92.70
5174;DHT22;2606;50.934;6.934;2022-07-17T07:34:46;19.20;92.20
5174;DHT22;2606;50.934;6.934;2022-07-17T07:37:12;19.30;91.90
5174;DHT22;2606;50.934;6.934;2022-07-17T07:39:38;19.40;91.90
5174;DHT22;2606;50.934;6.934;2022-07-17T07:42:03;19.40;91.70
5174;DHT22;2606;50.934;6.934;2022-07-17T07:44:29;19.50;91.80
5174;DHT22;2606;50.934;6.934;2022-07-17T07:46:55;19.60;91.50
5174;DHT22;2606;50.934;6.934;2022-07-17T07:49:20;19.60;91.20
5174;DHT22;2606;50.934;6.934;2022-07-17T07:51:46;19.70;91.00
5174;DHT22;2606;50.934;6.934;2022-07-17T07:54:12;19.80;90.80
5174;DHT22;2606;50.934;6.934;2022-07-17T07:56:37;19.90;90.40
5174;DHT22;2606;50.934;6.934;2022-07-17T07:59:03;20.00;90.00
5174;DHT22;2606;50.934;6.934;2022-07-17T08:01:29;20.00;89.90
5174;DHT22;2606;50.934;6.934;2022-07-17T08:03:55;20.00;89.70
5174;DHT22;2606;50.934;6.934;2022-07-17T08:06:21;20.00;89.60
5174;DHT22;2606;50.934;6.934;2022-07-17T08:08:46;20.10;89.00
5174;DHT22;2606;50.934;6.934;2022-07-17T08:11:12;20.10;89.10
5174;DHT22;2606;50.934;6.934;2022-07-17T08:13:38;20.20;88.60
5174;DHT22;2606;50.934;6.934;2022-07-17T08:16:04;20.20;88.20
5174;DHT22;2606;50.934;6.934;2022-07-17T08:18:29;20.30;88.60
5174;DHT22;2606;50.934;6.934;2022-07-17T08:20:55;20.40;87.20
5174;DHT22;2606;50.934;6.934;2022-07-17T08:23:21;20.40;86.50
5174;DHT22;2606;50.934;6.934;2022-07-17T08:25:46;20.40;85.50
5174;DHT22;2606;50.934;6.934;2022-07-17T08:28:13;20.40;85.80
5174;DHT22;2606;50.934;6.934;2022-07-17T08:30:39;20.40;84.30
5174;DHT22;2606;50.934;6.934;2022-07-17T08:33:07;20.40;83.60
5174;DHT22;2606;50.934;6.934;2022-07-17T08:35:34;20.40;84.20
5174;DHT22;2606;50.934;6.934;2022-07-17T08:37:59;20.50;84.40
5174;DHT22;2606;50.934;6.934;2022-07-17T08:40:31;20.60;83.30
5174;DHT22;2606;50.934;6.934;2022-07-17T08:42:57;20.70;82.60
5174;DHT22;2606;50.934;6.934;2022-07-17T08:45:23;20.70;82.20
5174;DHT22;2606;50.934;6.934;2022-07-17T08:47:51;20.80;81.60
5174;DHT22;2606;50.934;6.934;2022-07-17T08:50:21;20.90;81.00
5174;DHT22;2606;50.934;6.934;2022-07-17T08:52:47;20.90;80.20
5174;DHT22;2606;50.934;6.934;2022-07-17T08:55:13;21.00;79.00
5174;DHT22;2606;50.934;6.934;2022-07-17T08:57:41;21.00;77.30
5174;DHT22;2606;50.934;6.934;2022-07-17T09:00:09;21.10;78.20
5174;DHT22;2606;50.934;6.934;2022-07-17T09:02:36;21.10;76.50
5174;DHT22;2606;50.934;6.934;2022-07-17T09:05:02;21.20;75.90
5174;DHT22;2606;50.934;6.934;2022-07-17T09:07:28;21.30;75.60
5174;DHT22;2606;50.934;6.934;2022-07-17T09:09:53;21.30;72.60
5174;DHT22;2606;50.934;6.934;2022-07-17T09:12:27;21.40;73.00
5174;DHT22;2606;50.934;6.934;2022-07-17T09:14:53;21.50;71.10
5174;DHT22;2606;50.934;6.934;2022-07-17T09:17:18;21.50;71.60
5174;DHT22;2606;50.934;6.934;2022-07-17T09:19:45;21.60;70.90
5174;DHT22;2606;50.934;6.934;2022-07-17T09:22:13;21.80;71.20
5174;DHT22;2606;50.934;6.934;2022-07-17T09:27:06;22.10;70.60
5174;DHT22;2606;50.934;6.934;2022-07-17T09:29:32;22.30;70.20
5174;DHT22;2606;50.934;6.934;2022-07-17T09:31:58;22.50;68.20
5174;DHT22;2606;50.934;6.934;2022-07-17T09:34:23;22.60;67.50
5174;DHT22;2606;50.934;6.934;2022-07-17T09:37:02;22.60;66.80
5174;DHT22;2606;50.934;6.934;2022-07-17T09:39:35;22.70;67.00
5174;DHT22;2606;50.934;6.934;2022-07-17T09:42:01;22.80;66.90
5174;DHT22;2606;50.934;6.934;2022-07-17T09:44:26;22.90;65.30
5174;DHT22;2606;50.934;6.934;2022-07-17T09:46:53;23.00;65.00
5174;DHT22;2606;50.934;6.934;2022-07-17T09:49:19;23.00;64.00
5174;DHT22;2606;50.934;6.934;2022-07-17T09:51:50;23.10;63.40
5174;DHT22;2606;50.934;6.934;2022-07-17T09:54:21;23.40;61.90
5174;DHT22;2606;50.934;6.934;2022-07-17T09:56:50;23.60;61.00
5174;DHT22;2606;50.934;6.934;2022-07-17T09:59:16;24.00;60.40
5174;DHT22;2606;50.934;6.934;2022-07-17T10:01:44;24.30;60.00
5174;DHT22;2606;50.934;6.934;2022-07-17T10:04:10;24.60;57.70
5174;DHT22;2606;50.934;6.934;2022-07-17T10:06:37;24.80;56.70
5174;DHT22;2606;50.934;6.934;2022-07-17T10:09:03;25.10;56.10
5174;DHT22;2606;50.934;6.934;2022-07-17T10:11:32;25.40;53.70
5174;DHT22;2606;50.934;6.934;2022-07-17T10:14:06;25.80;52.60
5174;DHT22;2606;50.934;6.934;2022-07-17T10:16:34;26.20;51.00
5174;DHT22;2606;50.934;6.934;2022-07-17T10:19:00;26.60;49.30
5174;DHT22;2606;50.934;6.934;2022-07-17T10:21:30;26.90;48.90
5174;DHT22;2606;50.934;6.934;2022-07-17T10:26:54;27.30;47.40
5174;DHT22;2606;50.934;6.934;2022-07-17T10:29:39;27.50;47.40
5174;DHT22;2606;50.934;6.934;2022-07-17T10:32:14;27.60;46.80
5174;DHT22;2606;50.934;6.934;2022-07-17T10:34:47;27.90;46.60
5174;DHT22;2606;50.934;6.934;2022-07-17T10:37:21;28.10;45.90
5174;DHT22;2606;50.934;6.934;2022-07-17T10:39:57;28.30;45.50
5174;DHT22;2606;50.934;6.934;2022-07-17T10:45:35;28.90;43.80
5174;DHT22;2606;50.934;6.934;2022-07-17T10:50:41;29.10;41.80
5174;DHT22;2606;50.934;6.934;2022-07-17T10:53:17;29.40;41.60
5174;DHT22;2606;50.934;6.934;2022-07-17T10:55:48;29.70;40.60
5174;DHT22;2606;50.934;6.934;2022-07-17T10:58:19;29.80;40.70
5174;DHT22;2606;50.934;6.934;2022-07-17T11:03:23;30.30;38.60
5174;DHT22;2606;50.934;6.934;2022-07-17T11:05:48;30.40;37.90
5174;DHT22;2606;50.934;6.934;2022-07-17T11:08:14;30.40;37.20
5174;DHT22;2606;50.934;6.934;2022-07-17T11:10:40;30.70;37.00
5174;DHT22;2606;50.934;6.934;2022-07-17T11:13:11;30.70;35.60
5174;DHT22;2606;50.934;6.934;2022-07-17T11:15:48;30.80;35.10
5174;DHT22;2606;50.934;6.934;2022-07-17T11:18:19;30.90;35.30
5174;DHT22;2606;50.934;6.934;2022-07-17T11:20:59;30.90;35.10
5174;DHT22;2606;50.934;6.934;2022-07-17T11:23:30;31.00;35.80
5174;DHT22;2606;50.934;6.934;2022-07-17T11:25:59;31.10;35.40
5174;DHT22;2606;50.934;6.934;2022-07-17T11:28:42;31.40;35.10
5174;DHT22;2606;50.934;6.934;2022-07-17T11:31:22;31.50;34.60
5174;DHT22;2606;50.934;6.934;2022-07-17T11:33:50;31.70;34.10
5174;DHT22;2606;50.934;6.934;2022-07-17T11:36:36;31.70;33.60
5174;DHT22;2606;50.934;6.934;2022-07-17T11:39:05;31.90;33.30
5174;DHT22;2606;50.934;6.934;2022-07-17T11:41:42;32.10;32.90
5174;DHT22;2606;50.934;6.934;2022-07-17T11:44:10;32.20;32.80
5174;DHT22;2606;50.934;6.934;2022-07-17T11:46:38;32.50;32.70
5174;DHT22;2606;50.934;6.934;2022-07-17T11:49:05;32.80;32.30
5174;DHT22;2606;50.934;6.934;2022-07-17T11:51:43;32.80;31.90
5174;DHT22;2606;50.934;6.934;2022-07-17T11:54:14;33.00;31.40
5174;DHT22;2606;50.934;6.934;2022-07-17T11:56:41;32.70;31.30
5174;DHT22;2606;50.934;6.934;2022-07-17T11:59:09;32.50;31.60
5174;DHT22;2606;50.934;6.934;2022-07-17T12:01:43;32.20;31.90
5174;DHT22;2606;50.934;6.934;2022-07-17T12:04:11;32.20;32.10
5174;DHT22;2606;50.934;6.934;2022-07-17T12:06:36;32.20;31.50
5174;DHT22;2606;50.934;6.934;2022-07-17T12:09:03;32.30;31.40
5174;DHT22;2606;50.934;6.934;2022-07-17T12:11:29;32.40;31.20
5174;DHT22;2606;50.934;6.934;2022-07-17T12:14:03;32.30;31.30
5174;DHT22;2606;50.934;6.934;2022-07-17T12:16:31;32.40;31.10
5174;DHT22;2606;50.934;6.934;2022-07-17T12:19:08;32.50;31.20
5174;DHT22;2606;50.934;6.934;2022-07-17T12:24:28;33.20;30.00
5174;DHT22;2606;50.934;6.934;2022-07-17T12:26:56;33.50;30.00
5174;DHT22;2606;50.934;6.934;2022-07-17T12:29:22;33.60;29.10
5174;DHT22;2606;50.934;6.934;2022-07-17T12:31:48;33.90;29.10
5174;DHT22;2606;50.934;6.934;2022-07-17T12:34:14;34.00;28.90
5174;DHT22;2606;50.934;6.934;2022-07-17T12:36:39;34.00;28.70
5174;DHT22;2606;50.934;6.934;2022-07-17T12:39:05;34.00;28.70
5174;DHT22;2606;50.934;6.934;2022-07-17T12:41:31;34.20;28.70
5174;DHT22;2606;50.934;6.934;2022-07-17T12:43:56;34.40;28.20
5174;DHT22;2606;50.934;6.934;2022-07-17T12:46:22;34.30;28.30
5174;DHT22;2606;50.934;6.934;2022-07-17T12:48:48;34.10;28.40
5174;DHT22;2606;50.934;6.934;2022-07-17T12:51:14;33.80;28.30
5174;DHT22;2606;50.934;6.934;2022-07-17T12:53:43;34.00;28.70
5174;DHT22;2606;50.934;6.934;2022-07-17T12:56:09;34.50;28.00
5174;DHT22;2606;50.934;6.934;2022-07-17T12:58:36;34.70;27.70
5174;DHT22;2606;50.934;6.934;2022-07-17T13:01:02;34.50;27.80
5174;DHT22;2606;50.934;6.934;2022-07-17T13:03:28;34.40;27.80
5174;DHT22;2606;50.934;6.934;2022-07-17T13:05:54;34.60;27.70
5174;DHT22;2606;50.934;6.934;2022-07-17T13:08:19;35.10;27.50
5174;DHT22;2606;50.934;6.934;2022-07-17T13:10:45;35.30;27.60
5174;DHT22;2606;50.934;6.934;2022-07-17T13:13:11;35.10;27.10
5174;DHT22;2606;50.934;6.934;2022-07-17T13:15:36;35.30;27.00
5174;DHT22;2606;50.934;6.934;2022-07-17T13:18:02;35.50;26.80
5174;DHT22;2606;50.934;6.934;2022-07-17T13:20:28;35.50;27.00
5174;DHT22;2606;50.934;6.934;2022-07-17T13:22:54;35.50;26.50
5174;DHT22;2606;50.934;6.934;2022-07-17T13:25:20;35.30;26.20
5174;DHT22;2606;50.934;6.934;2022-07-17T13:27:45;35.20;26.20
5174;DHT22;2606;50.934;6.934;2022-07-17T13:30:11;35.10;26.10
5174;DHT22;2606;50.934;6.934;2022-07-17T13:32:37;35.00;26.00
5174;DHT22;2606;50.934;6.934;2022-07-17T13:35:04;34.90;26.10
5174;DHT22;2606;50.934;6.934;2022-07-17T13:37:30;34.90;26.10
5174;DHT22;2606;50.934;6.934;2022-07-17T13:39:56;34.60;25.90
5174;DHT22;2606;50.934;6.934;2022-07-17T13:42:21;34.90;25.80
5174;DHT22;2606;50.934;6.934;2022-07-17T13:44:47;35.40;25.30
5174;DHT22;2606;50.934;6.934;2022-07-17T13:47:12;35.70;24.80
5174;DHT22;2606;50.934;6.934;2022-07-17T13:49:38;35.60;24.80
5174;DHT22;2606;50.934;6.934;2022-07-17T13:52:04;35.60;24.80
5174;DHT22;2606;50.934;6.934;2022-07-17T13:54:30;35.60;24.50
5174;DHT22;2606;50.934;6.934;2022-07-17T13:56:56;35.50;24.00
5174;DHT22;2606;50.934;6.934;2022-07-17T13:59:22;35.40;23.90
5174;DHT22;2606;50.934;6.934;2022-07-17T14:01:48;35.30;23.90
5174;DHT22;2606;50.934;6.934;2022-07-17T14:04:13;35.50;24.50
5174;DHT22;2606;50.934;6.934;2022-07-17T14:06:39;35.70;23.50
5174;DHT22;2606;50.934;6.934;2022-07-17T14:09:05;36.00;23.40
5174;DHT22;2606;50.934;6.934;2022-07-17T14:11:30;36.40;23.00
5174;DHT22;2606;50.934;6.934;2022-07-17T14:13:56;36.70;23.00
5174;DHT22;2606;50.934;6.934;2022-07-17T14:16:22;36.90;22.90
5174;DHT22;2606;50.934;6.934;2022-07-17T14:18:47;37.30;23.00
5174;DHT22;2606;50.934;6.934;2022-07-17T14:21:36;37.20;23.60
5174;DHT22;2606;50.934;6.934;2022-07-17T14:24:05;36.80;24.00
5174;DHT22;2606;50.934;6.934;2022-07-17T14:26:31;36.50;24.30
5174;DHT22;2606;50.934;6.934;2022-07-17T14:28:58;36.40;24.40
5174;DHT22;2606;50.934;6.934;2022-07-17T14:31:23;35.80;24.40
5174;DHT22;2606;50.934;6.934;2022-07-17T14:33:49;35.80;24.50
5174;DHT22;2606;50.934;6.934;2022-07-17T14:36:15;35.80;24.40
5174;DHT22;2606;50.934;6.934;2022-07-17T14:38:40;35.70;24.80
5174;DHT22;2606;50.934;6.934;2022-07-17T14:41:06;35.70;24.60
5174;DHT22;2606;50.934;6.934;2022-07-17T14:43:32;36.00;24.60
5174;DHT22;2606;50.934;6.934;2022-07-17T14:45:58;36.30;24.30
5174;DHT22;2606;50.934;6.934;2022-07-17T14:48:24;35.90;24.60
5174;DHT22;2606;50.934;6.934;2022-07-17T14:50:49;35.90;25.00
5174;DHT22;2606;50.934;6.934;2022-07-17T14:53:15;36.00;25.20
5174;DHT22;2606;50.934;6.934;2022-07-17T14:55:41;36.20;24.90
5174;DHT22;2606;50.934;6.934;2022-07-17T14:58:06;36.10;24.90
5174;DHT22;2606;50.934;6.934;2022-07-17T15:00:32;36.00;24.80
5174;DHT22;2606;50.934;6.934;2022-07-17T15:02:57;35.90;24.90
5174;DHT22;2606;50.934;6.934;2022-07-17T15:05:23;35.90;24.90
5174;DHT22;2606;50.934;6.934;2022-07-17T15:07:49;35.90;25.00
5174;DHT22;2606;50.934;6.934;2022-07-17T15:10:15;36.00;25.10
5174;DHT22;2606;50.934;6.934;2022-07-17T15:12:40;36.10;25.10
5174;DHT22;2606;50.934;6.934;2022-07-17T15:15:06;35.80;25.00
5174;DHT22;2606;50.934;6.934;2022-07-17T15:17:32;35.60;25.20
5174;DHT22;2606;50.934;6.934;2022-07-17T15:19:58;35.50;25.10
5174;DHT22;2606;50.934;6.934;2022-07-17T15:22:24;35.40;25.20
5174;DHT22;2606;50.934;6.934;2022-07-17T15:24:49;35.40;25.60
5174;DHT22;2606;50.934;6.934;2022-07-17T15:27:15;35.70;25.40
5174;DHT22;2606;50.934;6.934;2022-07-17T15:29:41;36.20;25.10
5174;DHT22;2606;50.934;6.934;2022-07-17T15:32:06;36.20;24.60
5174;DHT22;2606;50.934;6.934;2022-07-17T15:34:32;36.30;24.50
5174;DHT22;2606;50.934;6.934;2022-07-17T15:36:58;36.30;24.60
5174;DHT22;2606;50.934;6.934;2022-07-17T15:39:23;36.60;24.30
5174;DHT22;2606;50.934;6.934;2022-07-17T15:41:49;36.80;24.20
5174;DHT22;2606;50.934;6.934;2022-07-17T15:44:14;37.10;24.10
5174;DHT22;2606;50.934;6.934;2022-07-17T15:46:42;37.20;23.50
5174;DHT22;2606;50.934;6.934;2022-07-17T15:49:08;37.20;23.40
5174;DHT22;2606;50.934;6.934;2022-07-17T15:51:35;37.40;23.40
5174;DHT22;2606;50.934;6.934;2022-07-17T15:54:00;37.50;23.20
5174;DHT22;2606;50.934;6.934;2022-07-17T15:56:29;37.50;23.10
5174;DHT22;2606;50.934;6.934;2022-07-17T15:58:55;37.70;23.20
5174;DHT22;2606;50.934;6.934;2022-07-17T16:01:21;38.00;23.30
5174;DHT22;2606;50.934;6.934;2022-07-17T16:03:47;38.20;22.70
5174;DHT22;2606;50.934;6.934;2022-07-17T16:06:13;38.10;22.70
5174;DHT22;2606;50.934;6.934;2022-07-17T16:08:39;37.70;23.10
5174;DHT22;2606;50.934;6.934;2022-07-17T16:11:05;37.70;23.20
5174;DHT22;2606;50.934;6.934;2022-07-17T16:13:31;37.70;23.50
5174;DHT22;2606;50.934;6.934;2022-07-17T16:15:56;37.80;23.20